Joseph City, Arizona
Current Conditions -  °F | °C
As of 4:56 PM on Wednesday 28 Jan 2015 (Local Time) from KINW Reporting Station
Clear Clear  
Wind Chill: 57°   Ceiling: Unl
Heat Index: 57°   Visibility: 10mi
Dew Point: 34°   Wind: 5mph
Humidity: 42%   Direction: 360°N
Pressure: 30.2"   Gusts: NA
Location:  34.96°N, 110.34°W
Report Text: KINW 282356Z AUTO 36004KT 10SM CLR 14/01 A3020 RMK AO2 SLP216 T01390011 10150 20089 55007
Loading
Personal Weather Stations






























Interactive Weather Map New forecast layout! Learn more

10-Day Weather Forecast

Advertisements
Track Severe Weather on mobile